createdAt,value
2023-05-10T00:02:33.676Z,99684.69
2023-05-10T00:05:35.333Z,99677.34
2023-05-10T00:08:36.790Z,99673.78
2023-05-10T00:11:38.280Z,99676.50
2023-05-10T00:14:39.814Z,99666.63
2023-05-10T00:17:41.407Z,99665.81
2023-05-10T00:20:42.959Z,99663.25
2023-05-10T00:23:44.443Z,99664.97
2023-05-10T00:26:46.008Z,99667.69
2023-05-10T00:29:47.585Z,99655.09
2023-05-10T00:32:50.707Z,99659.69
2023-05-10T00:35:52.450Z,99661.59
2023-05-10T00:38:54.060Z,99655.31
2023-05-10T00:41:55.552Z,99655.50
2023-05-10T00:44:58.465Z,99654.66
2023-05-10T00:48:03.704Z,99650.69
2023-05-10T00:51:05.528Z,99646.66
2023-05-10T00:54:07.624Z,99645.66
2023-05-10T00:57:09.633Z,99641.22
2023-05-10T01:00:12.212Z,99638.50
2023-05-10T01:03:13.940Z,99631.38
2023-05-10T01:06:15.559Z,99627.00
2023-05-10T01:09:17.187Z,99620.69
2023-05-10T01:12:19.762Z,99624.25
2023-05-10T01:15:21.700Z,99623.22
2023-05-10T01:18:24.093Z,99628.84
2023-05-10T01:21:49.452Z,99620.50
2023-05-10T01:24:58.291Z,99623.41
2023-05-10T01:27:59.722Z,99627.16
2023-05-10T01:31:36.841Z,99628.84
2023-05-10T01:35:07.225Z,99634.28
2023-05-10T01:38:31.697Z,99637.00
2023-05-10T01:42:03.123Z,99637.22
2023-05-10T01:45:34.686Z,99633.44
2023-05-10T01:48:49.338Z,99630.72
2023-05-10T01:51:55.644Z,99623.59
2023-05-10T01:55:02.541Z,99619.19
2023-05-10T01:58:10.797Z,99627.34
2023-05-10T02:01:14.416Z,99626.50
2023-05-10T02:04:18.251Z,99624.63
2023-05-10T02:07:22.715Z,99624.84
2023-05-10T02:10:24.255Z,99622.13
2023-05-10T02:13:27.922Z,99621.28
2023-05-10T02:16:31.822Z,99623.13
2023-05-10T02:19:37.524Z,99617.69
2023-05-10T02:22:41.188Z,99620.22
2023-05-10T02:25:44.266Z,99622.97
2023-05-10T02:28:46.480Z,99620.41
2023-05-10T02:31:48.999Z,99621.28
2023-05-10T02:34:53.951Z,99618.56
2023-05-10T02:37:55.975Z,99616.84
2023-05-10T02:40:58.586Z,99604.94
2023-05-10T02:44:03.639Z,99613.13
2023-05-10T02:47:05.248Z,99617.69
2023-05-10T02:50:07.542Z,99617.69
2023-05-10T02:53:12.864Z,99613.13
2023-05-10T02:56:47.862Z,99611.41
2023-05-10T02:59:49.333Z,99607.03
2023-05-10T03:02:50.926Z,99601.56
2023-05-10T03:05:54.682Z,99607.03
2023-05-10T03:08:56.327Z,99604.09
2023-05-10T03:12:08.152Z,99608.28
2023-05-10T03:15:18.712Z,99613.75
2023-05-10T03:18:24.382Z,99608.28
2023-05-10T03:21:29.566Z,99602.84
2023-05-10T03:24:32.020Z,99604.75
2023-05-10T03:27:37.110Z,99599.28
2023-05-10T03:30:39.663Z,99602.84
2023-05-10T03:33:52.742Z,99599.94
2023-05-10T03:36:59.494Z,99597.41
2023-05-10T03:40:06.627Z,99607.28
2023-05-10T03:43:10.498Z,99594.69
2023-05-10T03:46:12.078Z,99605.56
2023-05-10T03:49:14.228Z,99611.88
2023-05-10T03:52:16.390Z,99609.16
2023-05-10T03:55:18.029Z,99619.00
2023-05-10T03:58:20.221Z,99606.44
2023-05-10T04:01:21.829Z,99599.28
2023-05-10T04:04:24.067Z,99591.13
2023-05-10T04:07:25.623Z,99602.84
2023-05-10T04:10:27.115Z,99600.13
2023-05-10T04:13:28.681Z,99602.84
2023-05-10T04:16:30.336Z,99608.28
2023-05-10T04:19:32.330Z,99608.13
2023-05-10T04:22:33.834Z,99609.34
2023-05-10T04:25:36.457Z,99610.19
2023-05-10T04:28:37.998Z,99612.91
2023-05-10T04:31:39.580Z,99618.34
2023-05-10T04:34:41.106Z,99618.34
2023-05-10T04:37:42.602Z,99628.41
2023-05-10T04:40:44.073Z,99631.13
2023-05-10T04:43:45.615Z,99630.28
2023-05-10T04:46:47.195Z,99633.00
2023-05-10T04:49:48.665Z,99624.84
2023-05-10T04:52:50.214Z,99629.22
2023-05-10T04:55:51.740Z,99632.16
2023-05-10T04:58:53.289Z,99637.63
2023-05-10T05:01:54.831Z,99643.06
2023-05-10T05:04:58.717Z,99659.38
2023-05-10T05:08:00.221Z,99657.69
2023-05-10T05:11:01.844Z,99662.13
2023-05-10T05:14:03.363Z,99663.13
2023-05-10T05:17:04.878Z,99674.84
2023-05-10T05:20:06.968Z,99679.28
2023-05-10T05:23:08.454Z,99672.13
2023-05-10T05:26:10.522Z,99682.19
2023-05-10T05:29:11.989Z,99681.34
2023-05-10T05:32:13.537Z,99684.06
2023-05-10T05:35:15.356Z,99692.22
2023-05-10T05:38:18.250Z,99687.63
2023-05-10T05:41:19.793Z,99689.69
2023-05-10T05:44:21.220Z,99697.84
2023-05-10T05:47:22.675Z,99699.75
2023-05-10T05:50:24.150Z,99702.47
2023-05-10T05:53:25.740Z,99705.19
2023-05-10T05:56:27.281Z,99703.50
2023-05-10T05:59:28.805Z,99710.84
2023-05-10T06:02:30.404Z,99713.34
2023-05-10T06:05:31.896Z,99720.69
2023-05-10T06:08:34.795Z,99709.78
2023-05-10T06:11:36.598Z,99708.97
2023-05-10T06:14:38.058Z,99709.97
2023-05-10T06:17:39.855Z,99709.97
2023-05-10T06:20:42.822Z,99721.53
2023-05-10T06:23:44.818Z,99720.69
2023-05-10T06:26:46.341Z,99723.41
2023-05-10T06:29:49.213Z,99719.63
2023-05-10T06:32:52.756Z,99720.69
2023-05-10T06:35:54.258Z,99733.25
2023-05-10T06:38:55.806Z,99735.97
2023-05-10T06:41:57.504Z,99740.41
2023-05-10T06:44:58.961Z,99742.28
2023-05-10T06:48:00.732Z,99753.34
2023-05-10T06:51:02.282Z,99753.34
2023-05-10T06:54:04.157Z,99754.19
2023-05-10T06:57:10.750Z,99766.13
2023-05-10T07:00:19.450Z,99760.47
2023-05-10T07:03:21.300Z,99770.50
2023-05-10T07:06:32.968Z,99768.84
2023-05-10T07:09:35.492Z,99768.63
2023-05-10T07:12:37.027Z,99786.00
2023-05-10T07:15:38.556Z,99782.44
2023-05-10T07:18:40.113Z,99788.91
2023-05-10T07:21:43.486Z,99795.22
2023-05-10T07:24:45.180Z,99795.22
2023-05-10T07:27:46.885Z,99794.34
2023-05-10T07:30:49.083Z,99805.25
2023-05-10T07:33:50.644Z,99807.97
2023-05-10T07:36:52.867Z,99808.84
2023-05-10T07:39:54.389Z,99817.00
2023-05-10T07:42:55.953Z,99814.28
2023-05-10T07:45:58.550Z,99813.41
2023-05-10T07:49:00.148Z,99812.56
2023-05-10T07:52:01.762Z,99822.44
2023-05-10T07:55:03.369Z,99822.44
2023-05-10T07:58:04.952Z,99830.59
2023-05-10T08:01:06.672Z,99837.06
2023-05-10T08:04:08.435Z,99838.94
2023-05-10T08:07:10.000Z,99840.84
2023-05-10T08:10:14.468Z,99845.06
2023-05-10T08:13:18.829Z,99850.66
2023-05-10T08:16:21.145Z,99860.72
2023-05-10T08:19:23.660Z,99860.72
2023-05-10T08:22:25.186Z,99872.44
2023-05-10T08:25:26.675Z,99872.44
2023-05-10T08:28:28.220Z,99875.16
2023-05-10T08:31:29.856Z,99870.78
2023-05-10T08:34:32.094Z,99877.88
2023-05-10T08:37:34.005Z,99876.22
2023-05-10T08:40:37.602Z,99882.50
2023-05-10T08:43:39.960Z,99886.06
2023-05-10T08:46:46.809Z,99889.81
2023-05-10T08:49:52.103Z,99898.81
2023-05-10T08:52:58.483Z,99899.66
2023-05-10T08:56:00.161Z,99906.34
2023-05-10T08:59:04.594Z,99899.22
2023-05-10T09:02:07.128Z,99900.06
2023-05-10T09:05:09.025Z,99910.94
2023-05-10T09:08:10.801Z,99909.88
2023-05-10T09:11:13.710Z,99915.34
2023-05-10T09:14:16.392Z,99921.66
2023-05-10T09:17:18.045Z,99927.25
2023-05-10T09:20:19.985Z,99930.00
2023-05-10T09:23:21.610Z,99925.38
2023-05-10T09:26:26.287Z,99928.94
2023-05-10T09:29:40.454Z,99927.94
2023-05-10T09:32:44.704Z,99936.09
2023-05-10T09:35:46.227Z,99939.84
2023-05-10T09:38:55.140Z,99945.28
2023-05-10T09:41:56.645Z,99946.97
2023-05-10T09:45:06.129Z,99953.25
2023-05-10T09:48:07.911Z,99955.31
2023-05-10T09:51:09.555Z,99958.03
2023-05-10T09:54:16.660Z,99964.16
2023-05-10T09:57:22.899Z,99962.28
2023-05-10T10:00:24.866Z,99967.91
2023-05-10T10:03:27.340Z,99966.22
2023-05-10T10:06:30.812Z,99978.81
2023-05-10T10:09:33.386Z,99975.03
2023-05-10T10:12:35.031Z,99984.25
2023-05-10T10:15:36.654Z,99978.81
2023-05-10T10:18:41.218Z,99972.50
2023-05-10T10:21:42.700Z,99979.81
2023-05-10T10:24:44.306Z,99984.25
2023-05-10T10:27:57.738Z,99983.03
2023-05-10T10:31:11.714Z,99977.75
2023-05-10T10:34:32.254Z,99979.44
2023-05-10T10:37:52.350Z,99979.44
2023-05-10T10:41:12.547Z,99982.16
2023-05-10T10:44:26.232Z,99979.44
2023-05-10T10:47:31.962Z,99983.88
2023-05-10T10:50:44.613Z,99973.00
2023-05-10T10:53:48.982Z,99978.44
2023-05-10T10:57:16.762Z,99977.38
2023-05-10T11:00:41.832Z,99971.94
2023-05-10T11:04:06.202Z,99971.09
2023-05-10T11:07:20.808Z,99975.50
2023-05-10T11:10:23.292Z,99973.00
2023-05-10T11:13:51.157Z,99970.06
2023-05-10T11:16:53.314Z,99975.72
2023-05-10T11:20:11.555Z,99979.09
2023-05-10T11:23:16.670Z,99974.66
2023-05-10T11:26:18.568Z,99976.53
2023-05-10T11:29:20.925Z,99974.88
2023-05-10T11:32:22.867Z,99978.22
2023-05-10T11:35:24.355Z,99974.66
2023-05-10T11:38:25.893Z,99978.22
2023-05-10T11:41:30.291Z,99980.78
2023-05-10T11:44:35.267Z,99989.13
2023-05-10T11:47:37.996Z,99987.44
2023-05-10T11:50:39.569Z,99991.00
2023-05-10T11:53:41.051Z,99989.31
2023-05-10T11:56:42.574Z,100002.72
2023-05-10T11:59:44.046Z,99987.44
2023-05-10T12:02:46.967Z,99997.28
2023-05-10T12:05:48.631Z,100004.59
2023-05-10T12:08:54.407Z,99992.72
2023-05-10T12:11:58.788Z,100003.41
2023-05-10T12:15:00.293Z,100002.72
2023-05-10T12:18:02.131Z,100001.72
2023-05-10T12:21:05.177Z,100005.09
2023-05-10T12:24:07.216Z,100008.66
2023-05-10T12:27:09.630Z,100001.34
2023-05-10T12:30:11.825Z,100011.19
2023-05-10T12:33:16.034Z,100012.06
2023-05-10T12:36:18.847Z,100005.75
2023-05-10T12:39:20.292Z,100010.16
2023-05-10T12:42:21.758Z,100012.88
2023-05-10T12:45:23.194Z,100003.88
2023-05-10T12:48:24.725Z,100016.47
2023-05-10T12:51:26.197Z,100020.84
2023-05-10T12:54:28.700Z,100021.91
2023-05-10T12:57:30.293Z,100021.91
2023-05-10T13:00:31.774Z,100027.34
2023-05-10T13:03:33.319Z,100028.19
2023-05-10T13:06:35.934Z,100020.00
2023-05-10T13:09:37.397Z,100025.47
2023-05-10T13:12:38.855Z,100022.75
2023-05-10T13:15:40.392Z,100025.28
2023-05-10T13:18:41.917Z,100020.00
2023-05-10T13:21:45.125Z,100017.13
2023-05-10T13:24:46.627Z,100016.28
2023-05-10T13:27:48.098Z,100018.81
2023-05-10T13:30:49.545Z,100011.69
2023-05-10T13:33:51.034Z,100013.56
2023-05-10T13:36:53.853Z,100024.91
2023-05-10T13:39:55.808Z,100027.63
2023-05-10T13:42:57.250Z,100023.03
2023-05-10T13:45:58.799Z,100026.41
2023-05-10T13:49:00.349Z,100028.09
2023-05-10T13:52:07.677Z,100016.38
2023-05-10T13:55:09.476Z,100018.91
2023-05-10T13:58:11.509Z,100021.44
2023-05-10T14:01:13.146Z,100020.59
2023-05-10T14:04:14.639Z,100019.59
2023-05-10T14:07:16.164Z,100015.81
2023-05-10T14:10:17.754Z,100013.75
2023-05-10T14:13:19.209Z,100007.28
2023-05-10T14:16:21.120Z,100012.53
2023-05-10T14:19:22.658Z,100004.38
2023-05-10T14:22:24.192Z,100009.44
2023-05-10T14:25:25.830Z,100007.56
2023-05-10T14:28:27.399Z,100001.94
2023-05-10T14:31:31.125Z,100007.38
2023-05-10T14:34:32.732Z,100008.03
2023-05-10T14:37:34.425Z,100013.50
2023-05-10T14:40:35.899Z,100004.44
2023-05-10T14:43:37.589Z,100005.31
2023-05-10T14:46:39.548Z,100018.72
2023-05-10T14:49:41.758Z,100022.13
2023-05-10T14:52:43.393Z,100031.13
2023-05-10T14:55:44.898Z,100031.97
2023-05-10T14:58:46.338Z,100038.28
2023-05-10T15:01:47.794Z,100036.41
2023-05-10T15:04:49.587Z,100041.00
2023-05-10T15:07:51.468Z,100052.75
2023-05-10T15:10:52.921Z,100069.94
2023-05-10T15:13:54.518Z,100070.59
2023-05-10T15:16:56.056Z,100077.94
2023-05-10T15:19:57.505Z,100085.91
2023-05-10T15:22:58.997Z,100077.72
2023-05-10T15:26:01.768Z,100085.72
2023-05-10T15:29:03.291Z,100085.72
2023-05-10T15:32:04.970Z,100084.69
2023-05-10T15:35:08.837Z,100095.41
2023-05-10T15:38:10.770Z,100100.84
2023-05-10T15:41:12.674Z,100094.34
2023-05-10T15:44:14.208Z,100097.91
2023-05-10T15:47:15.664Z,100104.25
2023-05-10T15:50:17.604Z,100102.34
2023-05-10T15:53:19.057Z,100107.81
2023-05-10T15:56:20.500Z,100108.63
2023-05-10T15:59:21.985Z,100111.19
2023-05-10T16:02:23.697Z,100113.91
2023-05-10T16:05:27.372Z,100105.53
2023-05-10T16:08:30.738Z,100107.25
2023-05-10T16:11:32.192Z,100120.88
2023-05-10T16:14:33.714Z,100127.16
2023-05-10T16:17:35.256Z,100129.69
2023-05-10T16:20:36.817Z,100127.84
2023-05-10T16:23:38.378Z,100138.72
2023-05-10T16:26:41.077Z,100142.00
2023-05-10T16:29:42.671Z,100146.31
2023-05-10T16:32:44.306Z,100144.81
2023-05-10T16:35:45.852Z,100146.88
2023-05-10T16:38:47.288Z,100154.00
2023-05-10T16:41:48.709Z,100157.56
2023-05-10T16:44:50.203Z,100162.00
2023-05-10T16:47:53.519Z,100162.66
2023-05-10T16:50:55.176Z,100165.38
2023-05-10T16:53:56.746Z,100162.00
2023-05-10T16:56:58.189Z,100162.16
2023-05-10T16:59:59.744Z,100163.38
2023-05-10T17:03:01.320Z,100165.09
2023-05-10T17:06:02.963Z,100157.75
2023-05-10T17:09:05.613Z,100156.53
2023-05-10T17:12:07.254Z,100162.47
2023-05-10T17:15:09.549Z,100164.81
2023-05-10T17:18:11.109Z,100170.09
2023-05-10T17:21:12.685Z,100168.88
2023-05-10T17:24:14.718Z,100174.16
2023-05-10T17:27:16.305Z,100177.50
2023-05-10T17:30:22.459Z,100181.97
2023-05-10T17:33:24.126Z,100180.09
2023-05-10T17:36:25.635Z,100185.38
2023-05-10T17:39:27.125Z,100189.78
2023-05-10T17:42:28.570Z,100186.00
2023-05-10T17:45:30.425Z,100183.13
2023-05-10T17:48:32.012Z,100191.13
2023-05-10T17:51:33.484Z,100184.78
2023-05-10T17:54:35.100Z,100182.72
2023-05-10T17:57:38.621Z,100185.28
2023-05-10T18:00:40.306Z,100183.41
2023-05-10T18:03:41.850Z,100184.25
2023-05-10T18:06:43.280Z,100186.78
2023-05-10T18:09:44.903Z,100195.63
2023-05-10T18:12:46.569Z,100198.16
2023-05-10T18:15:48.135Z,100195.25
2023-05-10T18:18:49.614Z,100203.22
2023-05-10T18:21:54.318Z,100203.72
2023-05-10T18:24:56.041Z,100207.28
2023-05-10T18:27:57.520Z,100206.25
2023-05-10T18:30:59.041Z,100208.81
2023-05-10T18:34:00.626Z,100214.09
2023-05-10T18:37:07.069Z,100214.09
2023-05-10T18:40:14.467Z,100213.88
2023-05-10T18:43:15.973Z,100216.59
2023-05-10T18:46:17.397Z,100213.72
2023-05-10T18:49:18.899Z,100228.00
2023-05-10T18:52:20.387Z,100217.09
2023-05-10T18:55:22.001Z,100222.72
2023-05-10T18:58:23.434Z,100223.78
2023-05-10T19:01:24.986Z,100232.59
2023-05-10T19:04:26.536Z,100239.91
2023-05-10T19:07:30.843Z,100240.59
2023-05-10T19:10:32.307Z,100240.59
2023-05-10T19:13:34.212Z,100247.72
2023-05-10T19:16:36.646Z,100246.03
2023-05-10T19:19:38.199Z,100252.34
2023-05-10T19:22:51.466Z,100253.38
2023-05-10T19:26:00.748Z,100252.34
2023-05-10T19:29:04.032Z,100257.78
2023-05-10T19:32:05.855Z,100256.94
2023-05-10T19:35:07.677Z,100265.13
2023-05-10T19:38:09.110Z,100256.94
2023-05-10T19:41:11.385Z,100258.63
2023-05-10T19:44:13.399Z,100264.28
2023-05-10T19:47:15.135Z,100254.22
2023-05-10T19:50:17.066Z,100265.97
2023-05-10T19:53:18.702Z,100268.69
2023-05-10T19:56:21.420Z,100273.31
2023-05-10T19:59:23.399Z,100277.06
2023-05-10T20:02:24.837Z,100271.78
2023-05-10T20:05:26.305Z,100278.09
2023-05-10T20:08:27.904Z,100287.09
2023-05-10T20:11:29.488Z,100285.44
2023-05-10T20:14:30.946Z,100283.91
2023-05-10T20:17:32.558Z,100288.53
2023-05-10T20:20:34.312Z,100288.31
2023-05-10T20:23:35.792Z,100290.59
2023-05-10T20:26:37.274Z,100283.44
2023-05-10T20:29:38.902Z,100289.75
2023-05-10T20:32:40.397Z,100288.03
2023-05-10T20:35:42.384Z,100293.69
2023-05-10T20:38:43.862Z,100291.97
2023-05-10T20:41:45.347Z,100285.88
2023-05-10T20:44:46.847Z,100294.06
2023-05-10T20:47:48.510Z,100290.66
2023-05-10T20:50:51.685Z,100285.38
2023-05-10T20:53:53.167Z,100291.66
2023-05-10T20:56:54.687Z,100292.72
2023-05-10T20:59:56.194Z,100295.59
2023-05-10T21:02:57.840Z,100284.69
2023-05-10T21:05:59.417Z,100281.34
2023-05-10T21:09:00.918Z,100277.75
2023-05-10T21:12:05.501Z,100293.09
2023-05-10T21:15:08.094Z,100281.50
2023-05-10T21:18:09.618Z,100273.41
2023-05-10T21:21:11.414Z,100286.88
2023-05-10T21:24:13.478Z,100283.00
2023-05-10T21:27:14.943Z,100284.94
2023-05-10T21:30:16.856Z,100295.69
2023-05-10T21:33:18.520Z,100294.56
2023-05-10T21:36:19.980Z,100286.06
2023-05-10T21:39:21.607Z,100288.28
2023-05-10T21:42:23.096Z,100288.84
2023-05-10T21:45:24.543Z,100291.25
2023-05-10T21:48:26.066Z,100286.34
2023-05-10T21:51:29.186Z,100286.72
2023-05-10T21:54:30.919Z,100289.75
2023-05-10T21:57:32.473Z,100282.81
2023-05-10T22:00:34.454Z,100295.09
2023-05-10T22:03:35.942Z,100297.13
2023-05-10T22:06:37.462Z,100289.50
2023-05-10T22:09:39.001Z,100295.97
2023-05-10T22:12:40.757Z,100288.16
2023-05-10T22:15:43.233Z,100290.88
2023-05-10T22:18:44.761Z,100297.69
2023-05-10T22:21:46.485Z,100297.22
2023-05-10T22:24:47.981Z,100290.72
2023-05-10T22:27:49.532Z,100294.66
2023-05-10T22:30:51.572Z,100297.75
2023-05-10T22:33:53.029Z,100296.03
2023-05-10T22:36:54.514Z,100299.78
2023-05-10T22:39:56.297Z,100298.91
2023-05-10T22:42:57.766Z,100295.50
2023-05-10T22:45:59.290Z,100301.97
2023-05-10T22:49:00.833Z,100304.88
2023-05-10T22:52:02.310Z,100306.91
2023-05-10T22:55:04.035Z,100313.19
2023-05-10T22:58:06.152Z,100310.81
2023-05-10T23:01:07.952Z,100312.69
2023-05-10T23:04:09.947Z,100315.41
2023-05-10T23:07:11.708Z,100314.59
2023-05-10T23:10:13.220Z,100317.47
2023-05-10T23:13:14.644Z,100318.66
2023-05-10T23:16:16.497Z,100316.78
2023-05-10T23:19:17.999Z,100320.53
2023-05-10T23:22:19.465Z,100318.84
2023-05-10T23:25:21.022Z,100326.34
2023-05-10T23:28:22.541Z,100325.50
2023-05-10T23:31:24.064Z,100330.06
2023-05-10T23:34:25.530Z,100322.25
2023-05-10T23:37:27.818Z,100320.38
2023-05-10T23:40:29.395Z,100319.72
2023-05-10T23:43:31.086Z,100326.00
2023-05-10T23:46:32.627Z,100329.91
2023-05-10T23:49:34.150Z,100326.34
2023-05-10T23:52:35.700Z,100324.47
2023-05-10T23:55:37.269Z,100322.97
2023-05-10T23:58:38.717Z,100324.84
